Etusivu
METAR-TAF:

METAR-TAF

Lentoasemat :

Beauvechain, Belgia

Leveyspiiri: 50-45N, Pituuspiiri: 004-46E, korkeus merenpinnasta: 105 m

Tämänhetkinen sää

Tämä raportti tehtiin 17 minuuttia sitten, kello 05.23 UTC
Tuuli 4 kn idästä
Lämpötila -1°C
Kosteus 93%
Ilmanpaine 1009 hPa
Näkyvyys: 7000 m
Hajonneita pilviä 25000 ft:n korkeudessa

METAR: EBBE 210523Z 09004KT 7000 BKN250 M01/M02 Q1009 WHT BLU TEMPO WHT

Aika: 06:40 (05:40 UTC)

Sääennuste

Tämä raportti tehtiin 13 tuntia ja 59 minuuttia sitten, kello 15.41 UTC
Ennuste voimassa 20. päivästä klo 19 UTC - 21. päivään klo 07 UTC
Tuuli 7 kn idästä
Näkyvyys 10 km tai enemmän
Hajanaisia pilviä 8000 ft:n korkeudessa
Todennäköisyys 40% :
Ajoittain
21. päivästä klo 04 UTC - 21. päivään klo 07 UTC
Näkyvyys: 3000 m
Muutamia pilviä 700 ft:n korkeudessa
Hajanaisia pilviä 1000 ft:n korkeudessa
utua

TAF: EBBE 201541Z 2019/2107 09007KT 9999 SCT080 PROB40 TEMPO 2104/2107 3000 BR FEW007 SCT010

Säähavainnot ja -ennusteet yli 4000 lentoasemalta (METAR- ja TAF-raportit).

Käytössä olevat sääasemat on merkitty karttaan keltaisilla ja punaisilla pisteillä.

Aseta hiiri pisteen päälle nähdäksesi sääaseman nimen.

Klikkaa sitten nähdäksesi säähavainnot ja -ennusteet.

Kartan vaihtaminen: klikkaa mustalla rastilla varustettuja vihreitä pisteitä, niin voit zoomata sisään; viivalla varustettua vihreää pistettä, niin voit zoomata ulos tai vihreitä nuolia, niin pääset viereisille kartoille.


METAR-TAF: